createdAt,value
2019-01-14T01:38:10.129Z,142.17
2019-01-14T01:40:51.573Z,142.60
2019-01-14T01:43:32.497Z,140.83
2019-01-14T01:46:13.329Z,138.67
2019-01-14T01:48:54.684Z,141.93
2019-01-14T01:51:36.271Z,144.13
2019-01-14T01:54:17.212Z,148.03
2019-01-14T01:56:58.616Z,141.77
2019-01-14T01:59:39.624Z,144.40
2019-01-14T02:02:21.016Z,155.03
2019-01-14T02:05:02.400Z,153.03
2019-01-14T02:07:43.233Z,152.40
2019-01-14T02:10:24.248Z,157.43
2019-01-14T02:13:05.388Z,154.00
2019-01-14T02:15:46.754Z,159.00
2019-01-14T02:18:27.705Z,154.43
2019-01-14T02:21:08.296Z,158.57
2019-01-14T02:23:49.028Z,158.40
2019-01-14T02:26:30.323Z,148.07
2019-01-14T02:29:11.637Z,146.80
2019-01-14T02:31:52.448Z,152.23
2019-01-14T02:34:33.223Z,143.10
2019-01-14T02:37:13.052Z,140.97
2019-01-14T02:40:01.583Z,146.83
2019-01-14T02:42:42.937Z,155.33
2019-01-14T02:45:24.306Z,148.63
2019-01-14T02:48:05.599Z,154.67
2019-01-14T02:50:47.004Z,143.60
2019-01-14T02:53:28.415Z,126.73
2019-01-14T02:56:09.672Z,136.00
2019-01-14T02:58:50.552Z,129.30
2019-01-14T03:01:31.620Z,128.10
2019-01-14T03:04:12.737Z,127.77
2019-01-14T03:06:57.927Z,139.23
2019-01-14T03:09:37.268Z,127.63
2019-01-14T03:12:18.419Z,130.27
2019-01-14T03:14:59.383Z,136.07
2019-01-14T03:17:40.650Z,144.60
2019-01-14T03:20:22.304Z,139.00
2019-01-14T03:23:03.277Z,137.63
2019-01-14T03:25:44.580Z,142.77
2019-01-14T03:28:25.820Z,136.63
2019-01-14T03:31:07.278Z,138.10
2019-01-14T03:33:48.424Z,143.53
2019-01-14T03:36:29.276Z,138.53
2019-01-14T03:39:10.701Z,140.80
2019-01-14T03:41:52.208Z,137.37
2019-01-14T03:44:32.819Z,149.10
2019-01-14T03:47:13.621Z,147.03
2019-01-14T03:49:54.443Z,142.93
2019-01-14T03:52:35.540Z,142.33
2019-01-14T03:55:16.262Z,134.67
2019-01-14T03:57:57.400Z,141.90
2019-01-14T04:00:38.256Z,147.53
2019-01-14T04:03:19.337Z,143.83
2019-01-14T04:06:00.523Z,137.07
2019-01-14T04:08:41.726Z,131.17
2019-01-14T04:11:23.092Z,137.20
2019-01-14T04:14:04.539Z,138.10
2019-01-14T04:16:45.336Z,143.57
2019-01-14T04:19:25.403Z,138.47
2019-01-14T04:22:13.987Z,137.50
2019-01-14T04:24:54.932Z,152.03
2019-01-14T04:27:36.416Z,129.70
2019-01-14T04:30:17.729Z,84.93
2019-01-14T04:32:59.021Z,144.27
2019-01-14T04:35:40.257Z,137.27
2019-01-14T04:38:21.710Z,138.67
2019-01-14T04:41:03.101Z,129.43
2019-01-14T04:43:44.704Z,131.10
2019-01-14T04:46:25.771Z,136.20
2019-01-14T04:49:06.821Z,131.03
2019-01-14T04:51:46.399Z,135.00
2019-01-14T04:54:34.979Z,128.57
2019-01-14T04:57:16.308Z,133.73
2019-01-14T04:59:56.998Z,129.70
2019-01-14T05:02:38.408Z,135.47
2019-01-14T05:05:19.366Z,131.17
2019-01-14T05:08:00.249Z,117.73
2019-01-14T05:10:39.813Z,125.00
2019-01-14T05:13:20.581Z,133.80
2019-01-14T05:16:00.336Z,124.27
2019-01-14T05:18:41.363Z,131.30
2019-01-14T05:21:22.880Z,122.27
2019-01-14T05:24:03.561Z,114.53
2019-01-14T05:26:45.013Z,100.50
2019-01-14T05:29:26.295Z,120.50
2019-01-14T05:32:07.368Z,125.20
2019-01-14T05:34:48.359Z,116.70
2019-01-14T05:37:37.162Z,113.47
2019-01-14T05:40:12.962Z,108.20
2019-01-14T05:46:01.657Z,80.37
2019-01-14T05:48:43.136Z,92.63
2019-01-14T05:51:22.746Z,96.00
2019-01-14T05:54:11.279Z,94.73
2019-01-14T05:56:51.952Z,93.63
2019-01-14T05:59:32.921Z,95.57
2019-01-14T06:02:14.132Z,92.03
2019-01-14T06:04:54.934Z,92.67
2019-01-14T06:07:36.464Z,93.93
2019-01-14T06:10:17.438Z,89.20
2019-01-14T06:12:59.068Z,90.23
2019-01-14T06:15:39.778Z,91.70
2019-01-14T06:18:20.473Z,84.93
2019-01-14T06:21:01.984Z,88.13
2019-01-14T06:23:43.034Z,92.63
2019-01-14T06:26:24.372Z,90.27
2019-01-14T06:29:05.490Z,85.73
2019-01-14T06:31:46.729Z,83.00
2019-01-14T06:34:27.746Z,74.17
2019-01-14T06:37:09.219Z,84.13
2019-01-14T06:39:49.873Z,85.70
2019-01-14T06:42:30.497Z,86.53
2019-01-14T06:45:11.651Z,82.03
2019-01-14T06:47:52.377Z,84.37
2019-01-14T06:50:33.576Z,76.43
2019-01-14T06:53:14.999Z,82.43
2019-01-14T06:55:56.541Z,79.23
2019-01-14T06:58:37.886Z,75.03
2019-01-14T07:01:18.565Z,79.90
2019-01-14T07:03:59.341Z,82.13
2019-01-14T07:06:40.453Z,74.03
2019-01-14T07:09:21.333Z,74.33
2019-01-14T07:12:02.572Z,74.70
2019-01-14T07:14:44.117Z,79.77
2019-01-14T07:17:25.596Z,78.33
2019-01-14T07:20:06.893Z,73.80
2019-01-14T07:22:48.257Z,77.07
2019-01-14T07:25:29.701Z,73.10
2019-01-14T07:28:10.454Z,75.93
2019-01-14T07:30:51.883Z,78.17
2019-01-14T07:33:33.188Z,68.40
2019-01-14T07:36:12.837Z,64.57
2019-01-14T07:38:54.208Z,69.40
2019-01-14T07:41:35.440Z,68.60
2019-01-14T07:44:16.545Z,64.87
2019-01-14T07:46:57.221Z,70.07
2019-01-14T07:49:38.476Z,63.70
2019-01-14T07:52:19.873Z,64.70
2019-01-14T07:54:59.497Z,61.83
2019-01-14T07:57:47.992Z,56.77
2019-01-14T08:00:29.012Z,68.80
2019-01-14T08:03:08.503Z,67.70
2019-01-14T08:05:49.851Z,63.80
2019-01-14T08:08:31.267Z,70.27
2019-01-14T08:11:12.377Z,66.47
2019-01-14T08:13:51.972Z,66.63
2019-01-14T08:16:33.021Z,69.60
2019-01-14T08:19:14.599Z,75.50
2019-01-14T08:21:55.419Z,74.47
2019-01-14T08:24:36.607Z,66.10
2019-01-14T08:27:18.097Z,66.00
2019-01-14T08:29:58.884Z,59.70
2019-01-14T08:32:40.038Z,59.07
2019-01-14T08:35:21.288Z,68.83
2019-01-14T08:38:02.719Z,68.60
2019-01-14T08:40:43.885Z,70.77
2019-01-14T08:43:26.659Z,69.30
2019-01-14T08:46:06.802Z,67.87
2019-01-14T08:48:48.894Z,69.90
2019-01-14T08:51:30.352Z,77.33
2019-01-14T08:54:11.391Z,49.07
2019-01-14T08:56:53.267Z,53.47
2019-01-14T08:59:34.223Z,71.03
2019-01-14T09:02:15.223Z,67.60
2019-01-14T09:04:54.860Z,67.37
2019-01-14T10:07:20.456Z,99.10
2019-01-14T10:10:00.568Z,96.90
2019-01-14T10:12:40.901Z,89.50
2019-01-14T10:15:19.479Z,97.27
2019-01-14T10:50:17.506Z,100.00
2019-01-14T10:52:57.645Z,101.17
2019-01-14T10:55:36.065Z,96.87
2019-01-14T10:58:14.425Z,100.07
2019-01-14T11:06:55.776Z,81.72
2019-01-14T11:09:44.709Z,102.33
2019-01-14T11:15:25.597Z,97.53
2019-01-14T11:18:07.087Z,101.13
2019-01-14T11:20:48.647Z,102.83
2019-01-14T11:23:29.837Z,103.73
2019-01-14T11:26:11.110Z,95.33
2019-01-14T11:28:52.664Z,107.57
2019-01-14T11:31:33.826Z,102.80
2019-01-14T11:34:15.209Z,102.63
2019-01-14T11:36:56.888Z,109.20
2019-01-14T11:39:37.519Z,105.87
2019-01-14T11:42:18.280Z,70.33
2019-01-14T11:44:59.139Z,65.63
2019-01-14T11:47:40.016Z,110.47
2019-01-14T11:50:21.318Z,114.97
2019-01-14T11:53:02.659Z,113.57
2019-01-14T11:55:43.960Z,112.37
2019-01-14T11:58:25.483Z,109.03
2019-01-14T12:01:06.312Z,109.20
2019-01-14T12:03:46.980Z,110.40
2019-01-14T12:06:28.610Z,113.50
2019-01-14T12:09:12.431Z,102.43
2019-01-14T12:11:52.033Z,121.00
2019-01-14T12:14:33.387Z,134.37
2019-01-14T12:17:14.134Z,137.23
2019-01-14T12:19:55.179Z,129.83
2019-01-14T12:22:36.635Z,126.53
2019-01-14T12:25:17.761Z,125.93
2019-01-14T12:27:59.161Z,140.53
2019-01-14T12:30:41.687Z,143.83
2019-01-14T12:33:22.994Z,111.80
2019-01-14T12:36:04.553Z,137.97
2019-01-14T12:38:45.471Z,132.97
2019-01-14T12:41:25.590Z,136.67
2019-01-14T12:44:14.128Z,140.47
2019-01-14T12:46:54.773Z,145.63
2019-01-14T12:49:36.177Z,150.50
2019-01-14T12:52:17.611Z,148.50
2019-01-14T12:54:57.940Z,134.93
2019-01-14T12:57:39.511Z,147.60
2019-01-14T13:00:20.957Z,151.17
2019-01-14T13:03:02.388Z,147.70
2019-01-14T13:05:42.896Z,159.60
2019-01-14T13:08:24.378Z,153.77
2019-01-14T13:11:05.250Z,159.00
2019-01-14T13:13:46.604Z,158.97
2019-01-14T13:16:28.116Z,155.27
2019-01-14T13:19:09.659Z,118.30
2019-01-14T13:21:51.196Z,150.57
2019-01-14T13:24:32.815Z,157.90
2019-01-14T13:27:13.437Z,145.17
2019-01-14T13:29:54.888Z,158.97
2019-01-14T13:32:36.557Z,147.97
2019-01-14T13:35:16.192Z,155.27
2019-01-14T13:38:04.630Z,151.73
2019-01-14T13:40:45.582Z,149.33
2019-01-14T13:43:26.798Z,152.47
2019-01-14T13:46:07.855Z,157.93
2019-01-14T13:48:48.048Z,150.87
2019-01-14T13:51:28.720Z,174.60
2019-01-14T13:54:10.246Z,162.37
2019-01-14T13:56:51.909Z,165.03
2019-01-14T13:59:33.188Z,118.07
2019-01-14T14:02:14.565Z,153.83
2019-01-14T14:04:56.004Z,153.33
2019-01-14T14:07:36.960Z,162.53
2019-01-14T14:10:18.467Z,152.67
2019-01-14T14:12:59.933Z,155.07
2019-01-14T14:15:41.137Z,89.93
2019-01-14T14:18:22.685Z,106.90
2019-01-14T14:21:04.089Z,151.60
2019-01-14T14:23:44.759Z,149.33
2019-01-14T14:26:24.360Z,147.53
2019-01-14T14:29:05.540Z,82.10
2019-01-14T14:31:45.056Z,129.17
2019-01-14T14:34:25.933Z,150.60
2019-01-14T14:37:07.321Z,145.63
2019-01-14T14:39:48.728Z,149.50
2019-01-14T14:42:30.007Z,148.93
2019-01-14T14:45:11.425Z,146.47
2019-01-14T14:47:52.593Z,68.40
2019-01-14T14:50:33.853Z,147.43
2019-01-14T14:53:14.468Z,150.40
2019-01-14T14:55:55.089Z,141.67
2019-01-14T14:58:34.873Z,140.87
2019-01-14T15:01:14.492Z,73.00
2019-01-14T15:04:03.091Z,143.23
2019-01-14T15:06:44.341Z,145.50
2019-01-14T15:09:31.419Z,139.90
2019-01-14T15:12:06.449Z,147.67
2019-01-14T15:14:47.129Z,70.77
2019-01-14T15:17:27.834Z,150.63
2019-01-14T15:20:08.765Z,143.27
2019-01-14T15:22:49.781Z,143.90
2019-01-14T15:25:30.977Z,142.47
2019-01-14T15:28:10.428Z,72.00
2019-01-14T15:33:59.181Z,146.63
2019-01-14T15:36:38.577Z,135.37
2019-01-14T15:39:20.112Z,140.20
2019-01-14T15:42:00.929Z,147.22
2019-01-14T15:44:41.748Z,139.53
2019-01-14T15:47:23.126Z,143.47
2019-01-14T15:50:04.525Z,145.23
2019-01-14T15:52:45.367Z,151.63
2019-01-14T15:55:26.941Z,153.50
2019-01-14T15:58:07.720Z,146.10
2019-01-14T16:00:48.490Z,160.13
2019-01-14T16:03:30.160Z,161.23
2019-01-14T16:06:11.499Z,152.17
2019-01-14T16:08:52.863Z,147.83
2019-01-14T16:11:34.161Z,161.70
2019-01-14T16:14:15.121Z,148.43
2019-01-14T16:16:56.982Z,154.30
2019-01-14T16:19:38.001Z,153.53
2019-01-14T20:58:46.488Z,180.73
2019-01-14T21:01:25.119Z,179.30
